sensor_id;sensor_type;location;lat;lon;timestamp;P1;durP1;ratioP1;P2;durP2;ratioP2
22939;SDS011;11636;52.086;5.090;2023-07-31T00:01:02;9.98;;;3.80;;
22939;SDS011;11636;52.086;5.090;2023-07-31T00:03:56;16.85;;;6.15;;
22939;SDS011;11636;52.086;5.090;2023-07-31T00:06:44;24.52;;;8.85;;
22939;SDS011;11636;52.086;5.090;2023-07-31T00:09:37;27.67;;;9.25;;
22939;SDS011;11636;52.086;5.090;2023-07-31T00:12:25;32.85;;;10.15;;
22939;SDS011;11636;52.086;5.090;2023-07-31T00:15:18;34.42;;;9.95;;
22939;SDS011;11636;52.086;5.090;2023-07-31T00:18:12;23.48;;;9.60;;
22939;SDS011;11636;52.086;5.090;2023-07-31T00:21:06;30.70;;;10.13;;
22939;SDS011;11636;52.086;5.090;2023-07-31T00:24:00;31.02;;;10.43;;
22939;SDS011;11636;52.086;5.090;2023-07-31T00:26:48;42.70;;;11.45;;
22939;SDS011;11636;52.086;5.090;2023-07-31T00:29:41;39.70;;;11.77;;
22939;SDS011;11636;52.086;5.090;2023-07-31T00:32:28;33.85;;;11.02;;
22939;SDS011;11636;52.086;5.090;2023-07-31T00:35:23;31.83;;;10.32;;
22939;SDS011;11636;52.086;5.090;2023-07-31T00:38:10;36.83;;;11.38;;
22939;SDS011;11636;52.086;5.090;2023-07-31T00:41:03;32.45;;;10.73;;
22939;SDS011;11636;52.086;5.090;2023-07-31T00:43:57;40.92;;;11.40;;
22939;SDS011;11636;52.086;5.090;2023-07-31T00:46:51;37.83;;;11.32;;
22939;SDS011;11636;52.086;5.090;2023-07-31T00:49:45;34.17;;;11.18;;
22939;SDS011;11636;52.086;5.090;2023-07-31T00:52:33;32.45;;;10.35;;
22939;SDS011;11636;52.086;5.090;2023-07-31T00:55:27;38.47;;;10.30;;
22939;SDS011;11636;52.086;5.090;2023-07-31T00:58:21;36.65;;;10.07;;
22939;SDS011;11636;52.086;5.090;2023-07-31T01:01:15;31.02;;;9.27;;
22939;SDS011;11636;52.086;5.090;2023-07-31T01:04:10;36.13;;;10.10;;
22939;SDS011;11636;52.086;5.090;2023-07-31T01:13:40;37.63;;;11.82;;
22939;SDS011;11636;52.086;5.090;2023-07-31T01:16:30;36.88;;;10.95;;
22939;SDS011;11636;52.086;5.090;2023-07-31T01:19:25;32.85;;;10.70;;
22939;SDS011;11636;52.086;5.090;2023-07-31T01:28:49;30.33;;;10.13;;
22939;SDS011;11636;52.086;5.090;2023-07-31T01:32:04;26.40;;;9.35;;
22939;SDS011;11636;52.086;5.090;2023-07-31T01:34:58;26.77;;;9.57;;
22939;SDS011;11636;52.086;5.090;2023-07-31T01:37:46;25.02;;;9.52;;
22939;SDS011;11636;52.086;5.090;2023-07-31T01:40:41;26.83;;;9.95;;
22939;SDS011;11636;52.086;5.090;2023-07-31T01:43:28;32.30;;;9.93;;
22939;SDS011;11636;52.086;5.090;2023-07-31T01:46:21;30.52;;;10.35;;
22939;SDS011;11636;52.086;5.090;2023-07-31T01:49:09;28.02;;;9.43;;
22939;SDS011;11636;52.086;5.090;2023-07-31T01:52:03;24.65;;;8.75;;
22939;SDS011;11636;52.086;5.090;2023-07-31T01:54:50;26.65;;;8.45;;
22939;SDS011;11636;52.086;5.090;2023-07-31T01:57:43;26.40;;;8.27;;
22939;SDS011;11636;52.086;5.090;2023-07-31T02:00:38;21.85;;;7.80;;
22939;SDS011;11636;52.086;5.090;2023-07-31T02:03:25;23.02;;;8.32;;
22939;SDS011;11636;52.086;5.090;2023-07-31T02:06:19;22.65;;;7.40;;
22939;SDS011;11636;52.086;5.090;2023-07-31T02:09:06;28.55;;;8.18;;
22939;SDS011;11636;52.086;5.090;2023-07-31T02:12:00;27.75;;;8.27;;
22939;SDS011;11636;52.086;5.090;2023-07-31T02:14:53;22.35;;;7.57;;
22939;SDS011;11636;52.086;5.090;2023-07-31T02:17:48;21.25;;;7.68;;
22939;SDS011;11636;52.086;5.090;2023-07-31T02:20:42;25.05;;;8.27;;
22939;SDS011;11636;52.086;5.090;2023-07-31T02:23:29;20.05;;;7.65;;
22939;SDS011;11636;52.086;5.090;2023-07-31T02:26:23;28.40;;;8.45;;
22939;SDS011;11636;52.086;5.090;2023-07-31T02:29:10;26.02;;;9.20;;
22939;SDS011;11636;52.086;5.090;2023-07-31T02:32:04;24.15;;;8.32;;
22939;SDS011;11636;52.086;5.090;2023-07-31T02:34:51;22.00;;;8.05;;
22939;SDS011;11636;52.086;5.090;2023-07-31T02:37:45;31.50;;;10.05;;
22939;SDS011;11636;52.086;5.090;2023-07-31T02:40:32;36.33;;;10.55;;
22939;SDS011;11636;52.086;5.090;2023-07-31T02:43:26;32.88;;;10.60;;
22939;SDS011;11636;52.086;5.090;2023-07-31T02:46:20;30.45;;;9.82;;
22939;SDS011;11636;52.086;5.090;2023-07-31T02:49:17;27.48;;;9.32;;
22939;SDS011;11636;52.086;5.090;2023-07-31T02:52:04;48.40;;;12.05;;
22939;SDS011;11636;52.086;5.090;2023-07-31T02:54:58;36.47;;;11.05;;
22939;SDS011;11636;52.086;5.090;2023-07-31T02:57:59;33.33;;;10.75;;
22939;SDS011;11636;52.086;5.090;2023-07-31T03:00:59;22.75;;;9.43;;
22939;SDS011;11636;52.086;5.090;2023-07-31T03:03:53;36.88;;;10.30;;
22939;SDS011;11636;52.086;5.090;2023-07-31T03:06:47;40.28;;;11.63;;
22939;SDS011;11636;52.086;5.090;2023-07-31T03:09:41;30.45;;;10.32;;
22939;SDS011;11636;52.086;5.090;2023-07-31T03:12:35;36.25;;;11.02;;
22939;SDS011;11636;52.086;5.090;2023-07-31T03:15:22;29.70;;;10.00;;
22939;SDS011;11636;52.086;5.090;2023-07-31T03:18:16;30.30;;;10.93;;
22939;SDS011;11636;52.086;5.090;2023-07-31T03:21:10;25.75;;;10.35;;
22939;SDS011;11636;52.086;5.090;2023-07-31T03:23:57;27.50;;;10.23;;
22939;SDS011;11636;52.086;5.090;2023-07-31T03:26:51;31.45;;;10.90;;
22939;SDS011;11636;52.086;5.090;2023-07-31T03:29:38;33.30;;;10.68;;
22939;SDS011;11636;52.086;5.090;2023-07-31T03:32:38;31.63;;;10.57;;
22939;SDS011;11636;52.086;5.090;2023-07-31T03:35:25;26.17;;;9.95;;
22939;SDS011;11636;52.086;5.090;2023-07-31T03:38:19;25.80;;;10.00;;
22939;SDS011;11636;52.086;5.090;2023-07-31T03:41:06;28.77;;;10.65;;
22939;SDS011;11636;52.086;5.090;2023-07-31T03:44:00;28.67;;;9.88;;
22939;SDS011;11636;52.086;5.090;2023-07-31T03:46:47;28.80;;;9.77;;
22939;SDS011;11636;52.086;5.090;2023-07-31T03:49:41;35.28;;;11.25;;
22939;SDS011;11636;52.086;5.090;2023-07-31T03:52:35;29.42;;;10.25;;
22939;SDS011;11636;52.086;5.090;2023-07-31T03:55:22;26.02;;;9.43;;
22939;SDS011;11636;52.086;5.090;2023-07-31T03:58:16;27.33;;;9.88;;
22939;SDS011;11636;52.086;5.090;2023-07-31T04:01:10;33.25;;;11.25;;
22939;SDS011;11636;52.086;5.090;2023-07-31T04:04:04;21.20;;;9.07;;
22939;SDS011;11636;52.086;5.090;2023-07-31T04:06:58;24.67;;;9.82;;
22939;SDS011;11636;52.086;5.090;2023-07-31T04:09:45;24.73;;;9.80;;
22939;SDS011;11636;52.086;5.090;2023-07-31T04:12:39;24.70;;;9.82;;
22939;SDS011;11636;52.086;5.090;2023-07-31T04:15:33;21.05;;;9.10;;
22939;SDS011;11636;52.086;5.090;2023-07-31T04:18:27;20.50;;;9.32;;
22939;SDS011;11636;52.086;5.090;2023-07-31T04:21:14;25.75;;;10.32;;
22939;SDS011;11636;52.086;5.090;2023-07-31T04:24:08;26.75;;;10.15;;
22939;SDS011;11636;52.086;5.090;2023-07-31T04:26:55;22.50;;;10.02;;
22939;SDS011;11636;52.086;5.090;2023-07-31T04:29:49;24.90;;;10.15;;
22939;SDS011;11636;52.086;5.090;2023-07-31T04:32:43;20.42;;;9.02;;
22939;SDS011;11636;52.086;5.090;2023-07-31T04:35:37;24.73;;;9.70;;
22939;SDS011;11636;52.086;5.090;2023-07-31T04:38:31;24.55;;;9.45;;
22939;SDS011;11636;52.086;5.090;2023-07-31T04:41:18;23.55;;;8.73;;
22939;SDS011;11636;52.086;5.090;2023-07-31T04:44:12;21.30;;;9.50;;
22939;SDS011;11636;52.086;5.090;2023-07-31T04:46:59;20.17;;;8.80;;
22939;SDS011;11636;52.086;5.090;2023-07-31T04:49:53;19.95;;;8.45;;
22939;SDS011;11636;52.086;5.090;2023-07-31T04:52:40;13.80;;;7.60;;
22939;SDS011;11636;52.086;5.090;2023-07-31T04:55:34;22.60;;;8.85;;
22939;SDS011;11636;52.086;5.090;2023-07-31T04:58:21;17.42;;;7.38;;
22939;SDS011;11636;52.086;5.090;2023-07-31T05:01:15;15.68;;;8.25;;
22939;SDS011;11636;52.086;5.090;2023-07-31T05:04:02;14.85;;;7.63;;
22939;SDS011;11636;52.086;5.090;2023-07-31T05:06:56;16.98;;;7.95;;
22939;SDS011;11636;52.086;5.090;2023-07-31T05:09:50;17.58;;;7.85;;
22939;SDS011;11636;52.086;5.090;2023-07-31T05:12:44;13.25;;;7.00;;
22939;SDS011;11636;52.086;5.090;2023-07-31T05:15:38;15.27;;;6.80;;
22939;SDS011;11636;52.086;5.090;2023-07-31T05:18:25;16.17;;;6.90;;
22939;SDS011;11636;52.086;5.090;2023-07-31T05:21:19;13.05;;;6.80;;
22939;SDS011;11636;52.086;5.090;2023-07-31T05:24:06;13.35;;;5.32;;
22939;SDS011;11636;52.086;5.090;2023-07-31T05:27:00;14.85;;;5.97;;
22939;SDS011;11636;52.086;5.090;2023-07-31T05:29:47;12.82;;;6.30;;
22939;SDS011;11636;52.086;5.090;2023-07-31T05:32:41;11.80;;;5.68;;
22939;SDS011;11636;52.086;5.090;2023-07-31T05:35:28;12.93;;;6.25;;
22939;SDS011;11636;52.086;5.090;2023-07-31T05:38:22;14.02;;;6.20;;
22939;SDS011;11636;52.086;5.090;2023-07-31T05:41:11;19.05;;;7.13;;
22939;SDS011;11636;52.086;5.090;2023-07-31T05:44:05;14.80;;;6.85;;
22939;SDS011;11636;52.086;5.090;2023-07-31T05:46:52;12.70;;;6.07;;
22939;SDS011;11636;52.086;5.090;2023-07-31T05:49:46;13.98;;;7.07;;
22939;SDS011;11636;52.086;5.090;2023-07-31T05:52:33;13.98;;;6.93;;
22939;SDS011;11636;52.086;5.090;2023-07-31T05:55:27;12.77;;;6.00;;
22939;SDS011;11636;52.086;5.090;2023-07-31T05:58:21;13.43;;;6.20;;
22939;SDS011;11636;52.086;5.090;2023-07-31T06:01:08;10.43;;;5.95;;
22939;SDS011;11636;52.086;5.090;2023-07-31T06:04:02;10.57;;;5.43;;
22939;SDS011;11636;52.086;5.090;2023-07-31T06:06:50;14.60;;;5.78;;
22939;SDS011;11636;52.086;5.090;2023-07-31T06:09:44;12.65;;;5.47;;
22939;SDS011;11636;52.086;5.090;2023-07-31T06:12:31;11.85;;;5.18;;
22939;SDS011;11636;52.086;5.090;2023-07-31T06:15:25;8.73;;;4.85;;
22939;SDS011;11636;52.086;5.090;2023-07-31T06:18:12;8.32;;;4.53;;
22939;SDS011;11636;52.086;5.090;2023-07-31T06:21:06;9.85;;;4.60;;
22939;SDS011;11636;52.086;5.090;2023-07-31T06:24:00;10.27;;;4.82;;
22939;SDS011;11636;52.086;5.090;2023-07-31T06:26:47;8.65;;;4.43;;
22939;SDS011;11636;52.086;5.090;2023-07-31T06:29:41;11.20;;;4.47;;
22939;SDS011;11636;52.086;5.090;2023-07-31T06:32:29;10.68;;;4.82;;
22939;SDS011;11636;52.086;5.090;2023-07-31T06:35:23;10.65;;;4.80;;
22939;SDS011;11636;52.086;5.090;2023-07-31T06:38:10;8.88;;;4.40;;
22939;SDS011;11636;52.086;5.090;2023-07-31T06:41:04;10.30;;;5.30;;
22939;SDS011;11636;52.086;5.090;2023-07-31T06:43:51;9.23;;;4.95;;
22939;SDS011;11636;52.086;5.090;2023-07-31T06:46:45;10.18;;;5.20;;
22939;SDS011;11636;52.086;5.090;2023-07-31T06:49:32;10.55;;;5.07;;
22939;SDS011;11636;52.086;5.090;2023-07-31T06:52:26;10.80;;;5.88;;
22939;SDS011;11636;52.086;5.090;2023-07-31T06:55:20;9.02;;;4.18;;
22939;SDS011;11636;52.086;5.090;2023-07-31T06:58:15;11.50;;;5.28;;
22939;SDS011;11636;52.086;5.090;2023-07-31T07:01:02;9.82;;;4.70;;
22939;SDS011;11636;52.086;5.090;2023-07-31T07:03:56;10.55;;;5.00;;
22939;SDS011;11636;52.086;5.090;2023-07-31T07:06:43;8.82;;;4.30;;
22939;SDS011;11636;52.086;5.090;2023-07-31T07:09:37;9.27;;;4.07;;
22939;SDS011;11636;52.086;5.090;2023-07-31T07:12:25;9.23;;;4.57;;
22939;SDS011;11636;52.086;5.090;2023-07-31T07:15:19;11.68;;;4.50;;
22939;SDS011;11636;52.086;5.090;2023-07-31T07:18:13;8.63;;;4.07;;
22939;SDS011;11636;52.086;5.090;2023-07-31T07:21:00;13.43;;;5.00;;
22939;SDS011;11636;52.086;5.090;2023-07-31T07:23:55;10.05;;;4.07;;
22939;SDS011;11636;52.086;5.090;2023-07-31T07:26:42;8.02;;;4.03;;
22939;SDS011;11636;52.086;5.090;2023-07-31T07:29:38;7.88;;;3.92;;
22939;SDS011;11636;52.086;5.090;2023-07-31T07:32:25;5.78;;;3.42;;
22939;SDS011;11636;52.086;5.090;2023-07-31T07:35:19;9.07;;;3.33;;
22939;SDS011;11636;52.086;5.090;2023-07-31T07:38:07;7.57;;;3.60;;
22939;SDS011;11636;52.086;5.090;2023-07-31T07:41:00;7.57;;;3.17;;
22939;SDS011;11636;52.086;5.090;2023-07-31T07:43:54;7.85;;;3.78;;
22939;SDS011;11636;52.086;5.090;2023-07-31T07:46:41;5.95;;;2.70;;
22939;SDS011;11636;52.086;5.090;2023-07-31T07:49:35;5.43;;;2.63;;
22939;SDS011;11636;52.086;5.090;2023-07-31T07:52:36;5.57;;;2.83;;
22939;SDS011;11636;52.086;5.090;2023-07-31T07:55:23;5.85;;;3.00;;
22939;SDS011;11636;52.086;5.090;2023-07-31T07:58:17;7.45;;;2.60;;
22939;SDS011;11636;52.086;5.090;2023-07-31T08:01:04;5.28;;;2.40;;
22939;SDS011;11636;52.086;5.090;2023-07-31T08:03:58;4.72;;;2.47;;
22939;SDS011;11636;52.086;5.090;2023-07-31T08:06:46;5.93;;;2.53;;
22939;SDS011;11636;52.086;5.090;2023-07-31T08:09:39;4.72;;;2.60;;
22939;SDS011;11636;52.086;5.090;2023-07-31T08:12:27;5.25;;;2.42;;
22939;SDS011;11636;52.086;5.090;2023-07-31T08:15:20;3.85;;;2.20;;
22939;SDS011;11636;52.086;5.090;2023-07-31T08:18:07;4.40;;;2.10;;
22939;SDS011;11636;52.086;5.090;2023-07-31T08:21:02;5.18;;;1.98;;
22939;SDS011;11636;52.086;5.090;2023-07-31T08:23:55;4.00;;;2.05;;
22939;SDS011;11636;52.086;5.090;2023-07-31T08:26:49;3.45;;;1.73;;
22939;SDS011;11636;52.086;5.090;2023-07-31T08:29:36;4.15;;;1.80;;
22939;SDS011;11636;52.086;5.090;2023-07-31T08:32:30;4.05;;;1.95;;
22939;SDS011;11636;52.086;5.090;2023-07-31T08:35:25;3.25;;;1.85;;
22939;SDS011;11636;52.086;5.090;2023-07-31T08:38:19;4.80;;;2.45;;
22939;SDS011;11636;52.086;5.090;2023-07-31T08:41:13;3.25;;;1.70;;
22939;SDS011;11636;52.086;5.090;2023-07-31T08:44:07;4.57;;;1.80;;
22939;SDS011;11636;52.086;5.090;2023-07-31T08:47:01;3.25;;;1.88;;
22939;SDS011;11636;52.086;5.090;2023-07-31T08:49:49;4.10;;;2.15;;
22939;SDS011;11636;52.086;5.090;2023-07-31T08:52:48;4.25;;;2.10;;
22939;SDS011;11636;52.086;5.090;2023-07-31T08:55:44;4.05;;;2.10;;
22939;SDS011;11636;52.086;5.090;2023-07-31T08:58:33;4.38;;;2.47;;
22939;SDS011;11636;52.086;5.090;2023-07-31T09:01:30;4.18;;;2.40;;
22939;SDS011;11636;52.086;5.090;2023-07-31T09:04:18;3.78;;;1.90;;
22939;SDS011;11636;52.086;5.090;2023-07-31T09:07:13;3.28;;;2.13;;
22939;SDS011;11636;52.086;5.090;2023-07-31T09:10:02;4.22;;;2.00;;
22939;SDS011;11636;52.086;5.090;2023-07-31T09:12:57;4.50;;;2.20;;
22939;SDS011;11636;52.086;5.090;2023-07-31T09:15:45;5.97;;;2.50;;
22939;SDS011;11636;52.086;5.090;2023-07-31T09:18:55;4.82;;;2.30;;
22939;SDS011;11636;52.086;5.090;2023-07-31T09:21:49;4.32;;;2.22;;
22939;SDS011;11636;52.086;5.090;2023-07-31T09:24:43;3.78;;;2.17;;
22939;SDS011;11636;52.086;5.090;2023-07-31T09:27:38;4.47;;;2.20;;
22939;SDS011;11636;52.086;5.090;2023-07-31T09:30:47;3.50;;;2.30;;
22939;SDS011;11636;52.086;5.090;2023-07-31T09:33:46;4.60;;;2.38;;
22939;SDS011;11636;52.086;5.090;2023-07-31T09:36:49;5.40;;;2.40;;
22939;SDS011;11636;52.086;5.090;2023-07-31T09:39:47;4.00;;;2.20;;
22939;SDS011;11636;52.086;5.090;2023-07-31T09:42:34;3.28;;;2.05;;
22939;SDS011;11636;52.086;5.090;2023-07-31T09:45:29;2.90;;;2.10;;
22939;SDS011;11636;52.086;5.090;2023-07-31T09:48:27;3.97;;;2.10;;
22939;SDS011;11636;52.086;5.090;2023-07-31T09:51:15;4.65;;;2.30;;
22939;SDS011;11636;52.086;5.090;2023-07-31T09:54:09;4.63;;;2.50;;
22939;SDS011;11636;52.086;5.090;2023-07-31T09:56:57;4.38;;;2.50;;
22939;SDS011;11636;52.086;5.090;2023-07-31T09:59:52;4.28;;;2.90;;
22939;SDS011;11636;52.086;5.090;2023-07-31T10:02:41;6.63;;;3.28;;
22939;SDS011;11636;52.086;5.090;2023-07-31T10:05:38;5.10;;;3.33;;
22939;SDS011;11636;52.086;5.090;2023-07-31T10:08:30;4.93;;;3.28;;
22939;SDS011;11636;52.086;5.090;2023-07-31T10:11:25;5.20;;;4.00;;
22939;SDS011;11636;52.086;5.090;2023-07-31T10:14:18;5.97;;;3.90;;
22939;SDS011;11636;52.086;5.090;2023-07-31T10:17:12;5.57;;;3.67;;
22939;SDS011;11636;52.086;5.090;2023-07-31T10:20:01;6.43;;;4.80;;
22939;SDS011;11636;52.086;5.090;2023-07-31T10:22:57;6.75;;;4.47;;
22939;SDS011;11636;52.086;5.090;2023-07-31T10:25:45;8.05;;;4.47;;
22939;SDS011;11636;52.086;5.090;2023-07-31T10:28:40;5.93;;;4.43;;
22939;SDS011;11636;52.086;5.090;2023-07-31T10:31:29;6.70;;;4.85;;
22939;SDS011;11636;52.086;5.090;2023-07-31T10:34:24;8.02;;;5.20;;
22939;SDS011;11636;52.086;5.090;2023-07-31T10:37:24;6.85;;;4.68;;
22939;SDS011;11636;52.086;5.090;2023-07-31T10:40:15;6.82;;;4.63;;
22939;SDS011;11636;52.086;5.090;2023-07-31T10:43:09;6.85;;;5.15;;
22939;SDS011;11636;52.086;5.090;2023-07-31T10:46:12;6.70;;;4.33;;
22939;SDS011;11636;52.086;5.090;2023-07-31T10:49:06;9.15;;;4.50;;
22939;SDS011;11636;52.086;5.090;2023-07-31T10:52:03;6.47;;;4.43;;
22939;SDS011;11636;52.086;5.090;2023-07-31T10:54:50;5.40;;;3.50;;
22939;SDS011;11636;52.086;5.090;2023-07-31T10:58:18;5.28;;;3.75;;
22939;SDS011;11636;52.086;5.090;2023-07-31T11:01:09;4.80;;;3.20;;
22939;SDS011;11636;52.086;5.090;2023-07-31T11:04:07;5.38;;;3.05;;
22939;SDS011;11636;52.086;5.090;2023-07-31T11:06:58;4.32;;;2.72;;
22939;SDS011;11636;52.086;5.090;2023-07-31T11:09:52;5.45;;;2.90;;
22939;SDS011;11636;52.086;5.090;2023-07-31T11:12:40;5.97;;;3.42;;
22939;SDS011;11636;52.086;5.090;2023-07-31T11:15:33;5.57;;;2.97;;
22939;SDS011;11636;52.086;5.090;2023-07-31T11:18:28;8.52;;;3.17;;
22939;SDS011;11636;52.086;5.090;2023-07-31T11:21:22;6.57;;;3.17;;
22939;SDS011;11636;52.086;5.090;2023-07-31T11:24:24;5.53;;;3.10;;
22939;SDS011;11636;52.086;5.090;2023-07-31T11:27:12;7.75;;;3.67;;
22939;SDS011;11636;52.086;5.090;2023-07-31T11:30:06;7.18;;;4.10;;
22939;SDS011;11636;52.086;5.090;2023-07-31T11:32:54;8.77;;;4.50;;
22939;SDS011;11636;52.086;5.090;2023-07-31T11:35:49;8.75;;;4.43;;
22939;SDS011;11636;52.086;5.090;2023-07-31T11:38:36;6.22;;;4.30;;
22939;SDS011;11636;52.086;5.090;2023-07-31T11:41:29;6.57;;;4.28;;
22939;SDS011;11636;52.086;5.090;2023-07-31T11:44:17;8.48;;;5.43;;
22939;SDS011;11636;52.086;5.090;2023-07-31T11:47:14;9.63;;;6.28;;
22939;SDS011;11636;52.086;5.090;2023-07-31T11:50:03;10.23;;;6.50;;
22939;SDS011;11636;52.086;5.090;2023-07-31T11:52:59;9.10;;;6.90;;
22939;SDS011;11636;52.086;5.090;2023-07-31T11:55:54;11.05;;;7.40;;
22939;SDS011;11636;52.086;5.090;2023-07-31T11:58:58;11.18;;;7.20;;
22939;SDS011;11636;52.086;5.090;2023-07-31T12:01:54;8.60;;;6.80;;
22939;SDS011;11636;52.086;5.090;2023-07-31T12:04:48;7.22;;;5.43;;
22939;SDS011;11636;52.086;5.090;2023-07-31T12:07:46;11.38;;;5.85;;
22939;SDS011;11636;52.086;5.090;2023-07-31T12:10:40;5.45;;;4.45;;
22939;SDS011;11636;52.086;5.090;2023-07-31T12:13:28;9.63;;;5.47;;
22939;SDS011;11636;52.086;5.090;2023-07-31T12:16:25;8.38;;;4.85;;
22939;SDS011;11636;52.086;5.090;2023-07-31T12:19:20;6.00;;;4.93;;
22939;SDS011;11636;52.086;5.090;2023-07-31T12:22:14;6.75;;;5.30;;
22939;SDS011;11636;52.086;5.090;2023-07-31T12:25:02;7.63;;;5.03;;
22939;SDS011;11636;52.086;5.090;2023-07-31T12:27:56;6.28;;;4.82;;
22939;SDS011;11636;52.086;5.090;2023-07-31T12:30:49;7.63;;;5.22;;
22939;SDS011;11636;52.086;5.090;2023-07-31T12:33:44;7.28;;;4.70;;
22939;SDS011;11636;52.086;5.090;2023-07-31T12:36:38;7.65;;;5.10;;
22939;SDS011;11636;52.086;5.090;2023-07-31T12:39:26;6.75;;;4.57;;
22939;SDS011;11636;52.086;5.090;2023-07-31T12:42:20;5.93;;;4.60;;
22939;SDS011;11636;52.086;5.090;2023-07-31T12:45:07;7.22;;;5.30;;
22939;SDS011;11636;52.086;5.090;2023-07-31T12:48:01;5.55;;;4.43;;
22939;SDS011;11636;52.086;5.090;2023-07-31T12:50:48;6.32;;;4.72;;
22939;SDS011;11636;52.086;5.090;2023-07-31T12:53:42;7.75;;;5.53;;
22939;SDS011;11636;52.086;5.090;2023-07-31T12:56:29;7.43;;;5.38;;
22939;SDS011;11636;52.086;5.090;2023-07-31T12:59:23;6.13;;;4.32;;
22939;SDS011;11636;52.086;5.090;2023-07-31T13:02:10;5.10;;;4.25;;
22939;SDS011;11636;52.086;5.090;2023-07-31T13:05:07;5.97;;;4.35;;
22939;SDS011;11636;52.086;5.090;2023-07-31T13:08:01;5.70;;;4.38;;
22939;SDS011;11636;52.086;5.090;2023-07-31T13:10:55;5.85;;;3.90;;
22939;SDS011;11636;52.086;5.090;2023-07-31T13:13:49;5.32;;;3.22;;
22939;SDS011;11636;52.086;5.090;2023-07-31T13:16:36;4.80;;;3.60;;
22939;SDS011;11636;52.086;5.090;2023-07-31T13:19:30;6.18;;;4.10;;
22939;SDS011;11636;52.086;5.090;2023-07-31T13:22:17;5.53;;;3.20;;
22939;SDS011;11636;52.086;5.090;2023-07-31T13:25:11;6.50;;;3.95;;
22939;SDS011;11636;52.086;5.090;2023-07-31T13:28:05;4.95;;;3.10;;
22939;SDS011;11636;52.086;5.090;2023-07-31T13:30:59;4.90;;;2.30;;
22939;SDS011;11636;52.086;5.090;2023-07-31T13:33:53;4.05;;;1.73;;
22939;SDS011;11636;52.086;5.090;2023-07-31T13:36:40;3.05;;;1.60;;
22939;SDS011;11636;52.086;5.090;2023-07-31T13:39:35;2.55;;;1.73;;
22939;SDS011;11636;52.086;5.090;2023-07-31T13:42:22;5.43;;;2.30;;
22939;SDS011;11636;52.086;5.090;2023-07-31T13:45:16;3.75;;;2.28;;
22939;SDS011;11636;52.086;5.090;2023-07-31T13:48:03;4.60;;;2.45;;
22939;SDS011;11636;52.086;5.090;2023-07-31T13:50:57;5.45;;;3.13;;
22939;SDS011;11636;52.086;5.090;2023-07-31T13:53:44;4.28;;;1.85;;
22939;SDS011;11636;52.086;5.090;2023-07-31T13:56:38;3.70;;;1.90;;
22939;SDS011;11636;52.086;5.090;2023-07-31T13:59:32;4.93;;;1.90;;
22939;SDS011;11636;52.086;5.090;2023-07-31T14:02:19;4.53;;;2.70;;
22939;SDS011;11636;52.086;5.090;2023-07-31T14:05:13;8.23;;;3.22;;
22939;SDS011;11636;52.086;5.090;2023-07-31T14:08:00;4.03;;;2.75;;
22939;SDS011;11636;52.086;5.090;2023-07-31T14:10:54;4.97;;;2.58;;
22939;SDS011;11636;52.086;5.090;2023-07-31T14:13:49;6.47;;;2.47;;
22939;SDS011;11636;52.086;5.090;2023-07-31T14:16:44;3.80;;;1.75;;
22939;SDS011;11636;52.086;5.090;2023-07-31T14:19:31;3.08;;;1.80;;
22939;SDS011;11636;52.086;5.090;2023-07-31T14:22:31;3.97;;;2.17;;
22939;SDS011;11636;52.086;5.090;2023-07-31T14:25:27;4.13;;;2.00;;
22939;SDS011;11636;52.086;5.090;2023-07-31T14:28:14;3.65;;;2.13;;
22939;SDS011;11636;52.086;5.090;2023-07-31T14:31:08;4.68;;;2.55;;
22939;SDS011;11636;52.086;5.090;2023-07-31T14:34:02;6.00;;;3.88;;
22939;SDS011;11636;52.086;5.090;2023-07-31T14:36:49;6.63;;;4.20;;
22939;SDS011;11636;52.086;5.090;2023-07-31T14:39:43;4.18;;;2.80;;
22939;SDS011;11636;52.086;5.090;2023-07-31T14:42:30;3.50;;;2.10;;
22939;SDS011;11636;52.086;5.090;2023-07-31T14:45:24;3.35;;;2.05;;
22939;SDS011;11636;52.086;5.090;2023-07-31T14:48:11;4.72;;;2.10;;
22939;SDS011;11636;52.086;5.090;2023-07-31T14:51:05;3.65;;;2.10;;
22939;SDS011;11636;52.086;5.090;2023-07-31T14:53:59;4.43;;;2.30;;
22939;SDS011;11636;52.086;5.090;2023-07-31T14:56:46;4.80;;;3.08;;
22939;SDS011;11636;52.086;5.090;2023-07-31T14:59:40;5.22;;;2.55;;
22939;SDS011;11636;52.086;5.090;2023-07-31T15:02:34;4.22;;;2.88;;
22939;SDS011;11636;52.086;5.090;2023-07-31T15:05:28;6.63;;;5.38;;
22939;SDS011;11636;52.086;5.090;2023-07-31T15:08:15;7.63;;;5.72;;
22939;SDS011;11636;52.086;5.090;2023-07-31T15:11:09;6.65;;;4.50;;
22939;SDS011;11636;52.086;5.090;2023-07-31T15:13:56;6.43;;;4.38;;
22939;SDS011;11636;52.086;5.090;2023-07-31T15:16:50;7.68;;;6.10;;
22939;SDS011;11636;52.086;5.090;2023-07-31T15:19:37;7.65;;;5.82;;
22939;SDS011;11636;52.086;5.090;2023-07-31T15:22:31;6.43;;;5.30;;
22939;SDS011;11636;52.086;5.090;2023-07-31T15:25:18;7.07;;;5.75;;
22939;SDS011;11636;52.086;5.090;2023-07-31T15:28:12;6.40;;;4.90;;
22939;SDS011;11636;52.086;5.090;2023-07-31T15:30:59;7.32;;;5.18;;
22939;SDS011;11636;52.086;5.090;2023-07-31T15:33:53;7.28;;;5.43;;
22939;SDS011;11636;52.086;5.090;2023-07-31T15:36:47;7.75;;;6.00;;
22939;SDS011;11636;52.086;5.090;2023-07-31T15:39:34;6.88;;;5.28;;
22939;SDS011;11636;52.086;5.090;2023-07-31T15:42:28;6.60;;;4.60;;
22939;SDS011;11636;52.086;5.090;2023-07-31T15:45:15;5.38;;;4.00;;
22939;SDS011;11636;52.086;5.090;2023-07-31T15:48:09;4.60;;;3.83;;
22939;SDS011;11636;52.086;5.090;2023-07-31T15:51:03;4.28;;;3.40;;
22939;SDS011;11636;52.086;5.090;2023-07-31T15:53:57;5.40;;;3.78;;
22939;SDS011;11636;52.086;5.090;2023-07-31T15:56:51;4.50;;;3.00;;
22939;SDS011;11636;52.086;5.090;2023-07-31T15:59:38;5.13;;;2.75;;
22939;SDS011;11636;52.086;5.090;2023-07-31T16:02:32;2.72;;;1.88;;
22939;SDS011;11636;52.086;5.090;2023-07-31T16:05:21;3.45;;;1.90;;
22939;SDS011;11636;52.086;5.090;2023-07-31T16:08:15;3.33;;;1.70;;
22939;SDS011;11636;52.086;5.090;2023-07-31T16:11:09;4.63;;;1.80;;
22939;SDS011;11636;52.086;5.090;2023-07-31T16:13:56;3.30;;;1.58;;
22939;SDS011;11636;52.086;5.090;2023-07-31T16:16:50;3.85;;;1.65;;
22939;SDS011;11636;52.086;5.090;2023-07-31T16:19:39;3.88;;;1.73;;
22939;SDS011;11636;52.086;5.090;2023-07-31T16:22:33;2.33;;;1.58;;
22939;SDS011;11636;52.086;5.090;2023-07-31T16:25:27;4.10;;;1.52;;
22939;SDS011;11636;52.086;5.090;2023-07-31T16:28:21;2.72;;;1.33;;
22939;SDS011;11636;52.086;5.090;2023-07-31T16:31:08;2.70;;;1.20;;
22939;SDS011;11636;52.086;5.090;2023-07-31T16:34:02;3.30;;;1.30;;
22939;SDS011;11636;52.086;5.090;2023-07-31T16:36:49;4.32;;;2.00;;
22939;SDS011;11636;52.086;5.090;2023-07-31T16:39:43;3.75;;;1.88;;
22939;SDS011;11636;52.086;5.090;2023-07-31T16:42:33;4.82;;;2.53;;
22939;SDS011;11636;52.086;5.090;2023-07-31T16:45:27;2.78;;;1.63;;
22939;SDS011;11636;52.086;5.090;2023-07-31T16:48:21;3.83;;;1.35;;
22939;SDS011;11636;52.086;5.090;2023-07-31T16:51:15;2.10;;;1.17;;
22939;SDS011;11636;52.086;5.090;2023-07-31T16:54:09;3.42;;;1.35;;
22939;SDS011;11636;52.086;5.090;2023-07-31T16:56:56;2.25;;;0.88;;
22939;SDS011;11636;52.086;5.090;2023-07-31T16:59:50;2.30;;;1.20;;
22939;SDS011;11636;52.086;5.090;2023-07-31T17:02:44;2.17;;;1.20;;
22939;SDS011;11636;52.086;5.090;2023-07-31T17:05:38;3.03;;;1.38;;
22939;SDS011;11636;52.086;5.090;2023-07-31T17:08:25;2.83;;;1.50;;
22939;SDS011;11636;52.086;5.090;2023-07-31T17:11:19;2.80;;;1.42;;
22939;SDS011;11636;52.086;5.090;2023-07-31T17:14:06;1.88;;;1.10;;
22939;SDS011;11636;52.086;5.090;2023-07-31T17:17:02;3.20;;;1.42;;
22939;SDS011;11636;52.086;5.090;2023-07-31T17:19:56;2.42;;;1.63;;
22939;SDS011;11636;52.086;5.090;2023-07-31T17:22:43;2.47;;;1.45;;